0% ont trouvé ce document utile (0 vote)
15 vues2 pages

FECHA

Le document présente des données météorologiques pour la période du 24 septembre au 31 octobre 2025, incluant la température, l'humidité relative, les précipitations, la radiation solaire et la pression atmosphérique. Les températures varient de 17.9°C à 30°C, avec des précipitations notables le 8 octobre (92.21 mm) et le 9 octobre (52.83 mm). La majorité des jours enregistrent des précipitations nulles et des niveaux de radiation solaire variables.

Transféré par

gracielateran666
Copyright
© All Rights Reserved
Nous prenons très au sérieux les droits relatifs au contenu. Si vous pensez qu’il s’agit de votre contenu, signalez une atteinte au droit d’auteur ici.
Formats disponibles
Téléchargez aux formats DOCX, PDF, TXT ou lisez en ligne sur Scribd
0% ont trouvé ce document utile (0 vote)
15 vues2 pages

FECHA

Le document présente des données météorologiques pour la période du 24 septembre au 31 octobre 2025, incluant la température, l'humidité relative, les précipitations, la radiation solaire et la pression atmosphérique. Les températures varient de 17.9°C à 30°C, avec des précipitations notables le 8 octobre (92.21 mm) et le 9 octobre (52.83 mm). La majorité des jours enregistrent des précipitations nulles et des niveaux de radiation solaire variables.

Transféré par

gracielateran666
Copyright
© All Rights Reserved
Nous prenons très au sérieux les droits relatifs au contenu. Si vous pensez qu’il s’agit de votre contenu, signalez une atteinte au droit d’auteur ici.
Formats disponibles
Téléchargez aux formats DOCX, PDF, TXT ou lisez en ligne sur Scribd

FECHA TEMPERATURA HUMEDAD PRECIPITACION RADACION SOLAR PRESION

(C°) RELATIVA (MM) (W/m²) ATMOSFERICA


(%)
24/09/2025 30 61.7 0.25 358.9 1001.06
25/09/2025 28.2 49.3 0 266.5 1001.06
26/09/2025 27.2 64.6 0 211.5 999.18
27/09/2025 26.3 30.7 18.04 244.2 999.10
28/09/2025 24.2 39.9 1.01 155.1 1001.89
29/05/2025 25.8 36.1 0 245.6 1002.32
30/09/2025 25.9 39.1 0 277.2 1002.21
FECHA TEMPERATURA HUMEDAD PRECIPITACION RADACION SOLAR PRESION
(C°) RELATIVA (MM) (W/m²) ATMOSFERICA
(%)
01/10/2025 26.07 37.6 0 279.9 1002.16
02/10/2025 23.0 46.4 0 194.9 1003.75
03/10/2025 25.8 41.8 0 279.7 1002.91
04/10/2025 25.7 40.8 0 266.9 999.56
05/10/2025 26.7 52.2 0 267.3 997.71
06/10/2025 26.5 40.9 7.11 191.5 998. 47
07/10/2025 25.6 27.9 0 155.7 1000.24
08/10/2025 24.0 0 92.21 50.6 1000.55
09/10/2025 23.7 0 52.83 35.4 1000.78
10/10/2025 24.1 5.6 0 47.9 1002.85
11/10/2025 23.9 28.1 0 117.0 1001.95
12/10/2025 24.7 50.7 0 277.9 997.31
13/10/2025 25.9 38.1 0 194.0 996.66
14/10/2025 25.2 39.7 0 195.44 1002.24
15/10/2025 24.9 40.2 0 265.4 1001.36
16/10/2025 25.0 48.4 0 244.8 998.10
17/10/2025 25.7 46.7 0 244.8 996.91
18/10/2025 26.6 35.4 0 244.3 997.37
19/10/2025 26.8 45.3 0 240.5 1002.23
20/10/2025 26.3 33.2 0 221.6 1003.67
21/10/2025 26.6 32.9 0 222.8 1002.35
22/10/2025 25.2 36.1 0 251.1 1003.97
23/10/2025 26.2 39.5 0 125.0 1002.91
24/10/2025 25.9 44.9 0 247.7 1000.90
25/10/2025 25.5 39.1 0 264.2 998.65
26/10/2025 26.79 35.6 0 253.7 999.65
27/10/2025 26.74 45.8 0 220.1 999.00
28/10/2025 26.4 42.3 0 230.0 998.99
29/10/2025 19.4 42.8 0 48.6 1009.29
30/10/2025 17.9 29.5 0 259.6 1007.96
31/10/2025 19.5 39.0 0 212.5 1004.26

Vous aimerez peut-être aussi